Boykin, South Carolina
Current Conditions -  °F | °C
As of 3:58 PM on Tuesday 27 Jan 2015 (Local Time) from KSSC Reporting Station
Few Clouds Few Clouds  
Wind Chill:   Ceiling: Unl
Heat Index:   Visibility: 10mi
Dew Point: -6°   Wind: 10mph
Humidity: 33%   Direction: 310°NW
Pressure: 29.86"   Gusts: NA
Location:  34.1106°N, 80.4967°W
Report Text: KSSC 272058Z AUTO 31009KT 10SM FEW075 09/M06 A2986 RMK AO2 SLP114 T00941063 $
Loading
Personal Weather Stations






























Interactive Weather Map New forecast layout! Learn more

10-Day Weather Forecast

Advertisements
Track Severe Weather on mobile